THY49C LTFM-FSIA

Flight info

Callsign THY49C
Flight time 5h 17m
Altitude 37000
Route RATVU1E/36 RATVU UT35 AYT UM855 TOMBI M855 RASDA A16 CVO A727 LXR/N0483F390 P751 TOMRU DCT KSL/N0490F380 DCT ALRAP/N0488F390 UT124 BDR UT446 GWZ/N0486F400 UM308 GETOL/N0489F390 UG300 MAV UM313 EGLOM/N0483F410 UM313 MOGUD DCT UNBED UNBED1D
Aircraft A359/H-SDE2E3GHIJ3J4J5LM1ORWXY/LB1D1

Departure

Time 2026-04-13 15:11
Airport İstanbul Airport (LTFM)

Arrival

Time 2026-04-13 20:28
Airport Seychelles International Airport (FSIA)
Time Latitude Longitude Altitude Speed Heading
2026-04-13 14:50 41.26804 28.74359 340 ft 0 kts 269°
2026-04-13 14:58 41.26804 28.74353 340 ft 0 kts 269°
2026-04-13 14:58 41.26804 28.74369 336 ft 3 kts 269°
2026-04-13 14:58 41.26805 28.74396 338 ft 3 kts 269°
2026-04-13 14:59 41.26805 28.74417 335 ft 2 kts 270°
2026-04-13 14:59 41.26804 28.74438 337 ft 3 kts 296°
2026-04-13 14:59 41.26797 28.74453 335 ft 3 kts 328°
2026-04-13 14:59 41.26781 28.74463 335 ft 3 kts 348°
2026-04-13 15:00 41.26761 28.74467 335 ft 3 kts 358°
2026-04-13 15:00 41.26753 28.74468 335 ft 1 kts 359°
2026-04-13 15:00 41.26783 28.74467 335 ft 0 kts 359°
2026-04-13 15:00 41.26784 28.74467 335 ft 0 kts 359°
2026-04-13 15:02 41.26818 28.74467 335 ft 9 kts 359°
2026-04-13 15:03 41.26874 28.74464 335 ft 0 kts 355°
2026-04-13 15:03 41.26875 28.74464 340 ft 3 kts 356°
2026-04-13 15:03 41.26941 28.74467 338 ft 9 kts 17°
2026-04-13 15:03 41.26971 28.74523 336 ft 9 kts 77°
2026-04-13 15:04 41.26974 28.74608 336 ft 10 kts 88°
2026-04-13 15:04 41.26977 28.74708 340 ft 12 kts 88°
2026-04-13 15:04 41.26977 28.74821 340 ft 13 kts 90°
2026-04-13 15:04 41.26977 28.74945 339 ft 14 kts 89°
2026-04-13 15:05 41.26981 28.75080 337 ft 15 kts 88°
2026-04-13 15:05 41.26982 28.75222 337 ft 16 kts 89°
2026-04-13 15:05 41.26975 28.75341 338 ft 8 kts 115°
2026-04-13 15:05 41.26930 28.75373 335 ft 10 kts 172°
2026-04-13 15:06 41.26821 28.75378 338 ft 21 kts 179°
2026-04-13 15:06 41.26648 28.75382 340 ft 27 kts 179°
2026-04-13 15:06 41.26496 28.75387 337 ft 13 kts 179°
2026-04-13 15:06 41.26401 28.75389 336 ft 15 kts 179°
2026-04-13 15:07 41.26336 28.75459 336 ft 11 kts 102°
2026-04-13 15:07 41.26336 28.75487 340 ft 0 kts 88°
2026-04-13 15:09 41.26337 28.75524 340 ft 11 kts 87°
2026-04-13 15:09 41.26354 28.75640 335 ft 7 kts 49°
2026-04-13 15:09 41.26398 28.75664 338 ft 7 kts
2026-04-13 15:09 41.26416 28.75664 335 ft 0 kts 357°
2026-04-13 15:10 41.26472 28.75662 336 ft 33 kts 359°
2026-04-13 15:10 41.26948 28.75651 337 ft 102 kts 360°
2026-04-13 15:10 41.27855 28.75638 338 ft 157 kts 359°
2026-04-13 15:10 41.29034 28.75576 787 ft 172 kts
2026-04-13 15:11 41.30200 28.75742 1648 ft 167 kts 20°
2026-04-13 15:11 41.31237 28.76407 2426 ft 166 kts 34°
2026-04-13 15:11 41.32262 28.77198 3028 ft 177 kts 28°
2026-04-13 15:11 41.33383 28.77983 3573 ft 185 kts 28°
2026-04-13 15:12 41.34576 28.78764 3982 ft 196 kts 26°
2026-04-13 15:12 41.35857 28.79498 4450 ft 204 kts 22°
2026-04-13 15:12 41.37178 28.80340 4731 ft 223 kts 39°
2026-04-13 15:12 41.38020 28.82153 4939 ft 245 kts 78°
2026-04-13 15:13 41.37861 28.84413 5323 ft 258 kts 114°
2026-04-13 15:13 41.36713 28.86248 5863 ft 264 kts 145°
2026-04-13 15:13 41.35095 28.87463 6489 ft 270 kts 156°
2026-04-13 15:13 41.33342 28.88447 7058 ft 276 kts 163°
2026-04-13 15:14 41.31480 28.89231 7574 ft 284 kts 165°
2026-04-13 15:14 41.29561 28.89974 8178 ft 289 kts 166°
2026-04-13 15:14 41.27599 28.90692 8768 ft 294 kts 167°
2026-04-13 15:14 41.25606 28.91397 9391 ft 299 kts 167°
2026-04-13 15:15 41.23567 28.92108 9981 ft 305 kts 168°
2026-04-13 15:15 41.21499 28.92824 10355 ft 318 kts 168°
2026-04-13 15:15 41.19299 28.93583 10600 ft 334 kts 168°
2026-04-13 15:15 41.16997 28.94379 10860 ft 349 kts 168°
2026-04-13 15:16 41.14596 28.95214 11098 ft 362 kts 168°
2026-04-13 15:16 41.12113 28.96081 11355 ft 375 kts 168°
2026-04-13 15:16 41.09546 28.96976 11653 ft 385 kts 168°
2026-04-13 15:16 41.06936 28.97889 12075 ft 390 kts 168°
2026-04-13 15:17 41.04381 28.98787 12529 ft 394 kts 168°
2026-04-13 15:17 41.01711 28.99727 12984 ft 398 kts 168°
2026-04-13 15:17 40.99019 29.00671 13437 ft 402 kts 168°
2026-04-13 15:17 40.96300 29.01622 13888 ft 406 kts 168°
2026-04-13 15:18 40.93556 29.02578 14311 ft 409 kts 168°
2026-04-13 15:18 40.90789 29.03541 14768 ft 410 kts 168°
2026-04-13 15:18 40.88019 29.04504 15227 ft 412 kts 168°
2026-04-13 15:18 40.85278 29.05456 15673 ft 414 kts 169°
2026-04-13 15:19 40.82483 29.06426 16120 ft 416 kts 169°
2026-04-13 15:19 40.79677 29.07398 16581 ft 418 kts 169°
2026-04-13 15:19 40.76851 29.08377 17017 ft 420 kts 169°
2026-04-13 15:19 40.74017 29.09357 17441 ft 422 kts 169°
2026-04-13 15:20 40.71163 29.10344 17873 ft 425 kts 169°
2026-04-13 15:20 40.68296 29.11335 18312 ft 427 kts 169°
2026-04-13 15:20 40.65448 29.12318 18698 ft 429 kts 169°
2026-04-13 15:20 40.62515 29.13330 19062 ft 431 kts 169°
2026-04-13 15:21 40.59643 29.14319 19399 ft 434 kts 169°
2026-04-13 15:21 40.56706 29.15331 19797 ft 436 kts 169°
2026-04-13 15:21 40.53764 29.16344 20161 ft 438 kts 169°
2026-04-13 15:21 40.50807 29.17360 20512 ft 440 kts 170°
2026-04-13 15:22 40.47830 29.18381 20872 ft 443 kts 170°
2026-04-13 15:22 40.44832 29.19408 21228 ft 446 kts 170°
2026-04-13 15:22 40.41825 29.20437 21558 ft 448 kts 170°
2026-04-13 15:22 40.38802 29.21472 21927 ft 450 kts 170°
2026-04-13 15:23 40.35798 29.22500 22268 ft 452 kts 170°
2026-04-13 15:23 40.32750 29.23542 22614 ft 454 kts 170°
2026-04-13 15:23 40.29685 29.24589 22922 ft 456 kts 170°
2026-04-13 15:23 40.26612 29.25637 23260 ft 457 kts 170°
2026-04-13 15:24 40.23519 29.26692 23538 ft 460 kts 170°
2026-04-13 15:24 40.20402 29.27753 23827 ft 462 kts 171°
2026-04-13 15:24 40.17280 29.28815 24099 ft 464 kts 171°
2026-04-13 15:24 40.14143 29.29882 24357 ft 466 kts 170°
2026-04-13 15:25 40.11039 29.30937 24608 ft 468 kts 171°
2026-04-13 15:25 40.07887 29.32006 24894 ft 469 kts 170°
2026-04-13 15:25 40.04722 29.33077 25157 ft 470 kts 170°
2026-04-13 15:25 40.01553 29.34149 25383 ft 472 kts 170°
2026-04-13 15:26 39.98360 29.35229 25634 ft 474 kts 171°
2026-04-13 15:26 39.95154 29.36313 25885 ft 476 kts 171°
2026-04-13 15:26 39.91948 29.37430 26135 ft 479 kts 168°
2026-04-13 15:26 39.88793 29.38906 26435 ft 484 kts 163°
2026-04-13 15:27 39.85650 29.40537 26726 ft 486 kts 162°
2026-04-13 15:27 39.82513 29.42237 27012 ft 489 kts 161°
2026-04-13 15:27 39.79375 29.43972 27326 ft 491 kts 161°
2026-04-13 15:27 39.76224 29.45725 27618 ft 493 kts 161°
2026-04-13 15:28 39.73064 29.47480 27916 ft 495 kts 161°
2026-04-13 15:28 39.69883 29.49239 28232 ft 497 kts 161°
2026-04-13 15:28 39.66689 29.50996 28542 ft 499 kts 161°
2026-04-13 15:28 39.63521 29.52732 28873 ft 502 kts 161°
2026-04-13 15:29 39.60276 29.54446 29203 ft 503 kts 163°
2026-04-13 15:29 39.57000 29.56088 29532 ft 505 kts 163°
2026-04-13 15:29 39.53699 29.57706 29868 ft 507 kts 163°
2026-04-13 15:29 39.50376 29.59327 30188 ft 510 kts 163°
2026-04-13 15:30 39.47092 29.60934 30463 ft 513 kts 163°
2026-04-13 15:30 39.43751 29.62580 30764 ft 515 kts 163°
2026-04-13 15:30 39.40396 29.64240 31078 ft 517 kts 163°
2026-04-13 15:30 39.37027 29.65912 31363 ft 519 kts 163°
2026-04-13 15:31 39.33645 29.67592 31641 ft 521 kts 163°
2026-04-13 15:31 39.30246 29.69279 31895 ft 523 kts 163°
2026-04-13 15:31 39.26831 29.70972 32157 ft 526 kts 163°
2026-04-13 15:31 39.23450 29.72648 32418 ft 527 kts 163°
2026-04-13 15:32 39.20021 29.74345 32800 ft 526 kts 163°
2026-04-13 15:32 39.16601 29.76037 33219 ft 525 kts 163°
2026-04-13 15:32 39.13197 29.77719 33607 ft 523 kts 163°
2026-04-13 15:32 39.09790 29.79399 33976 ft 523 kts 163°
2026-04-13 15:33 39.06384 29.81076 34330 ft 522 kts 163°
2026-04-13 15:33 39.03000 29.82741 34656 ft 521 kts 163°
2026-04-13 15:33 38.99610 29.84407 35010 ft 520 kts 163°
2026-04-13 15:34 38.92892 29.87702 35672 ft 518 kts 163°
2026-04-13 15:34 38.89516 29.89356 36012 ft 518 kts 163°
2026-04-13 15:34 38.86150 29.90999 36349 ft 517 kts 164°
2026-04-13 15:34 38.82778 29.92614 36638 ft 517 kts 164°
2026-04-13 15:35 38.79405 29.94209 36951 ft 516 kts 165°
2026-04-13 15:35 38.76065 29.95782 37116 ft 518 kts 165°
2026-04-13 15:35 38.69267 29.98987 37132 ft 521 kts 165°
2026-04-13 15:36 38.62465 30.02203 37129 ft 521 kts 164°
2026-04-13 15:36 38.55680 30.05409 37127 ft 521 kts 164°
2026-04-13 15:37 38.48872 30.08619 37134 ft 521 kts 164°
2026-04-13 15:37 38.42054 30.11828 37132 ft 521 kts 164°
2026-04-13 15:38 38.35239 30.15029 37132 ft 522 kts 164°
2026-04-13 15:38 38.28464 30.18183 37134 ft 521 kts 165°
2026-04-13 15:39 38.21628 30.21317 37129 ft 521 kts 165°
2026-04-13 15:39 38.14786 30.24446 37130 ft 521 kts 165°
2026-04-13 15:40 38.07963 30.27566 37127 ft 521 kts 165°
2026-04-13 15:40 38.01166 30.30673 37127 ft 521 kts 165°
2026-04-13 15:41 37.94326 30.33789 37128 ft 521 kts 165°
2026-04-13 15:41 37.87483 30.36881 37129 ft 521 kts 165°
2026-04-13 15:42 37.80686 30.39946 37138 ft 521 kts 165°
2026-04-13 15:42 37.73843 30.43030 37135 ft 521 kts 165°
2026-04-13 15:43 37.67003 30.46109 37128 ft 521 kts 165°
2026-04-13 15:43 37.60156 30.49185 37120 ft 521 kts 165°
2026-04-13 15:44 37.53360 30.52231 37123 ft 521 kts 165°
2026-04-13 15:44 37.46518 30.55294 37118 ft 520 kts 165°
2026-04-13 15:45 37.39713 30.58334 37128 ft 520 kts 165°
2026-04-13 15:45 37.32888 30.61375 37135 ft 521 kts 165°
2026-04-13 15:46 37.27201 30.63905 37133 ft 521 kts 165°
2026-04-13 15:46 37.20360 30.66943 37133 ft 521 kts 165°
2026-04-13 15:47 37.13509 30.69981 37131 ft 522 kts 165°
2026-04-13 15:47 37.06656 30.73014 37132 ft 522 kts 165°
2026-04-13 15:48 36.99851 30.76019 37128 ft 522 kts 165°
2026-04-13 15:48 36.92959 30.78797 37125 ft 516 kts 173°
2026-04-13 15:49 36.85888 30.79727 37127 ft 508 kts 183°
2026-04-13 15:49 36.78876 30.80004 37127 ft 506 kts 184°
2026-04-13 15:50 36.71828 30.80187 37127 ft 506 kts 184°
2026-04-13 15:50 36.64777 30.80396 37133 ft 506 kts 184°
2026-04-13 15:51 36.57728 30.80632 37117 ft 506 kts 184°
2026-04-13 15:51 36.50672 30.80878 37114 ft 506 kts 184°
2026-04-13 15:52 36.43675 30.81121 37125 ft 506 kts 184°
2026-04-13 15:52 36.36629 30.81367 37120 ft 506 kts 184°
2026-04-13 15:53 36.29579 30.81600 37121 ft 506 kts 184°
2026-04-13 15:53 36.22561 30.81830 37119 ft 506 kts 184°
2026-04-13 15:54 36.15520 30.82063 37119 ft 506 kts 184°
2026-04-13 15:54 36.08470 30.82297 37121 ft 506 kts 184°
2026-04-13 15:55 36.01424 30.82546 37118 ft 507 kts 183°
2026-04-13 15:55 35.94415 30.82962 37119 ft 507 kts 182°
2026-04-13 15:56 35.87345 30.83432 37120 ft 507 kts 182°
2026-04-13 15:56 35.80288 30.83879 37122 ft 507 kts 182°
2026-04-13 15:57 35.73274 30.84305 37121 ft 507 kts 182°
2026-04-13 15:57 35.66215 30.84728 37116 ft 507 kts 182°
2026-04-13 15:58 35.59160 30.85143 37122 ft 507 kts 183°
2026-04-13 15:58 35.52197 30.85395 37118 ft 501 kts 184°
2026-04-13 15:59 35.45221 30.85582 37119 ft 500 kts 184°
2026-04-13 15:59 35.38260 30.85789 37122 ft 500 kts 184°
2026-04-13 16:00 35.31285 30.86017 37119 ft 501 kts 184°
2026-04-13 16:00 35.24319 30.86252 37120 ft 501 kts 184°
2026-04-13 16:01 35.17387 30.86485 37121 ft 501 kts 184°
2026-04-13 16:01 35.10417 30.86718 37120 ft 501 kts 184°
2026-04-13 16:02 35.03438 30.86950 37121 ft 501 kts 184°
2026-04-13 16:02 34.96466 30.87182 37122 ft 501 kts 184°
2026-04-13 16:03 34.89479 30.87414 37126 ft 502 kts 184°
2026-04-13 16:03 34.82482 30.87645 37125 ft 502 kts 184°
2026-04-13 16:04 34.75723 30.87869 37119 ft 502 kts 184°
2026-04-13 16:04 34.68706 30.88100 37118 ft 502 kts 184°
2026-04-13 16:05 34.61707 30.88331 37127 ft 503 kts 184°
2026-04-13 16:05 34.54703 30.88627 37124 ft 504 kts 183°
2026-04-13 16:06 34.47741 30.88994 37127 ft 504 kts 183°
2026-04-13 16:06 34.40726 30.89358 37124 ft 504 kts 183°
2026-04-13 16:07 34.33699 30.89708 37125 ft 505 kts 183°
2026-04-13 16:07 34.26663 30.90052 37125 ft 505 kts 183°
2026-04-13 16:08 34.19641 30.90411 37126 ft 505 kts 183°
2026-04-13 16:08 34.12650 30.90803 37126 ft 506 kts 182°
2026-04-13 16:09 34.05618 30.91202 37131 ft 506 kts 182°
2026-04-13 16:09 33.98574 30.91595 37130 ft 506 kts 182°
2026-04-13 16:10 33.91526 30.91971 37130 ft 506 kts 183°
2026-04-13 16:10 33.84529 30.92231 37140 ft 506 kts 184°
2026-04-13 16:11 33.77484 30.92468 37139 ft 506 kts 184°
2026-04-13 16:11 33.70440 30.92721 37132 ft 506 kts 184°
2026-04-13 16:12 33.63385 30.92987 37131 ft 507 kts 184°
2026-04-13 16:12 33.56342 30.93255 37134 ft 507 kts 184°
2026-04-13 16:13 33.49280 30.93523 37134 ft 507 kts 184°
2026-04-13 16:13 33.42222 30.93789 37124 ft 507 kts 184°
2026-04-13 16:14 33.35209 30.94054 37134 ft 507 kts 184°
2026-04-13 16:14 33.28147 30.94319 37131 ft 507 kts 184°
2026-04-13 16:15 33.21087 30.94584 37132 ft 507 kts 184°
2026-04-13 16:15 33.14063 30.94847 37133 ft 507 kts 184°
2026-04-13 16:16 33.06997 30.95160 37134 ft 509 kts 181°
2026-04-13 16:16 32.99948 30.95942 37132 ft 511 kts 179°
2026-04-13 16:17 32.92878 30.96857 37133 ft 511 kts 179°
2026-04-13 16:17 32.85798 30.97709 37132 ft 511 kts 180°
2026-04-13 16:18 32.78709 30.98509 37132 ft 511 kts 180°
2026-04-13 16:18 32.71626 30.99293 37127 ft 511 kts 180°
2026-04-13 16:19 32.64544 31.00077 37132 ft 511 kts 180°
2026-04-13 16:19 32.57476 31.00861 37133 ft 511 kts 180°
2026-04-13 16:20 32.50371 31.01649 37134 ft 512 kts 180°
2026-04-13 16:20 32.43272 31.02435 37133 ft 512 kts 180°
2026-04-13 16:21 32.36176 31.03220 37130 ft 512 kts 180°
2026-04-13 16:21 32.29109 31.04000 37132 ft 512 kts 180°
2026-04-13 16:22 32.21996 31.04783 37129 ft 513 kts 180°
2026-04-13 16:23 32.11372 31.05952 37127 ft 513 kts 180°
2026-04-13 16:23 32.04259 31.06732 37128 ft 513 kts 180°
2026-04-13 16:24 31.97129 31.07513 37127 ft 513 kts 180°
2026-04-13 16:24 31.90054 31.08271 37121 ft 513 kts 180°
2026-04-13 16:25 31.82924 31.09033 37121 ft 513 kts 180°
2026-04-13 16:25 31.75797 31.09796 37116 ft 514 kts 180°
2026-04-13 16:26 31.68673 31.10559 37125 ft 514 kts 180°
2026-04-13 16:26 31.61588 31.11318 37124 ft 514 kts 180°
2026-04-13 16:27 31.54447 31.12081 37121 ft 514 kts 180°
2026-04-13 16:27 31.47299 31.13045 37117 ft 518 kts 176°
2026-04-13 16:28 31.40229 31.14471 37120 ft 519 kts 174°
2026-04-13 16:28 31.33105 31.15925 37115 ft 519 kts 175°
2026-04-13 16:29 31.25975 31.17300 37112 ft 519 kts 175°
2026-04-13 16:29 31.18838 31.18639 37111 ft 519 kts 175°
2026-04-13 16:30 31.11736 31.19956 37109 ft 519 kts 175°
2026-04-13 16:30 31.04601 31.21277 37107 ft 519 kts 175°
2026-04-13 16:31 30.97463 31.22602 37099 ft 519 kts 175°
2026-04-13 16:31 30.90317 31.23928 37101 ft 520 kts 175°
2026-04-13 16:32 30.83155 31.25256 37098 ft 520 kts 175°
2026-04-13 16:32 30.75998 31.26580 37090 ft 521 kts 175°
2026-04-13 16:33 30.68880 31.27895 37091 ft 521 kts 175°
2026-04-13 16:33 30.61709 31.29218 37087 ft 521 kts 175°
2026-04-13 16:34 30.54530 31.30540 37081 ft 522 kts 175°
2026-04-13 16:34 30.47390 31.31853 37075 ft 522 kts 175°
2026-04-13 16:35 30.41366 31.32959 37079 ft 522 kts 175°
2026-04-13 16:35 30.34230 31.34268 37074 ft 522 kts 175°
2026-04-13 16:36 30.27051 31.35583 37076 ft 523 kts 175°
2026-04-13 16:36 30.19855 31.36899 37073 ft 523 kts 175°
2026-04-13 16:37 30.12672 31.38210 37075 ft 523 kts 175°
2026-04-13 16:37 30.05560 31.40051 37074 ft 527 kts 168°
2026-04-13 16:38 29.98494 31.42357 37077 ft 528 kts 167°
2026-04-13 16:38 29.91429 31.44727 37073 ft 528 kts 167°
2026-04-13 16:39 29.84361 31.47088 37074 ft 528 kts 167°
2026-04-13 16:39 29.77292 31.49431 37079 ft 528 kts 168°
2026-04-13 16:40 29.70269 31.51750 37082 ft 528 kts 167°
2026-04-13 16:40 29.63192 31.54083 37080 ft 528 kts 168°
2026-04-13 16:41 29.56118 31.56391 37098 ft 528 kts 168°
2026-04-13 16:41 29.49043 31.58698 37096 ft 528 kts 168°
2026-04-13 16:42 29.41961 31.61007 37101 ft 528 kts 168°
2026-04-13 16:42 29.34932 31.63299 37098 ft 528 kts 168°
2026-04-13 16:43 29.27857 31.65601 37102 ft 528 kts 168°
2026-04-13 16:43 29.20788 31.67898 37095 ft 528 kts 168°
2026-04-13 16:44 29.13755 31.70180 37095 ft 528 kts 168°
2026-04-13 16:44 29.06677 31.72473 37090 ft 528 kts 168°
2026-04-13 16:45 28.99610 31.74759 37087 ft 528 kts 168°
2026-04-13 16:45 28.92534 31.77034 37083 ft 528 kts 168°
2026-04-13 16:46 28.85466 31.79276 37084 ft 527 kts 168°
2026-04-13 16:46 28.78421 31.81506 37078 ft 527 kts 168°
2026-04-13 16:47 28.71355 31.83745 37083 ft 527 kts 168°
2026-04-13 16:47 28.64290 31.85982 37081 ft 527 kts 168°
2026-04-13 16:48 28.57228 31.88217 37086 ft 527 kts 168°
2026-04-13 16:48 28.50154 31.90452 37091 ft 527 kts 168°
2026-04-13 16:49 28.43099 31.92678 37096 ft 527 kts 168°
2026-04-13 16:49 28.36017 31.94908 37091 ft 527 kts 168°
2026-04-13 16:50 28.28999 31.97116 37088 ft 526 kts 168°
2026-04-13 16:50 28.21935 31.99335 37083 ft 526 kts 168°
2026-04-13 16:51 28.14862 32.01553 37085 ft 526 kts 168°
2026-04-13 16:51 28.07803 32.03765 37083 ft 526 kts 168°
2026-04-13 16:52 28.01047 32.05883 37077 ft 526 kts 168°
2026-04-13 16:52 27.94006 32.08135 37067 ft 526 kts 168°
2026-04-13 16:53 27.86966 32.10396 37054 ft 526 kts 168°
2026-04-13 16:53 27.79963 32.12637 37045 ft 526 kts 168°
2026-04-13 16:54 27.72922 32.14884 37038 ft 525 kts 168°
2026-04-13 16:54 27.65875 32.17127 37026 ft 525 kts 168°
2026-04-13 16:55 27.58835 32.19366 37017 ft 525 kts 168°
2026-04-13 16:55 27.51835 32.21589 37005 ft 525 kts 168°
2026-04-13 16:56 27.44805 32.23819 36995 ft 525 kts 168°
2026-04-13 16:56 27.37790 32.26041 36992 ft 524 kts 168°
2026-04-13 16:57 27.30759 32.28265 36989 ft 524 kts 168°
2026-04-13 16:57 27.23734 32.30493 36987 ft 523 kts 168°
2026-04-13 16:58 27.16763 32.32691 36981 ft 523 kts 169°
2026-04-13 16:58 27.09744 32.34901 36983 ft 522 kts 169°
2026-04-13 16:59 27.02741 32.37106 36981 ft 522 kts 169°
2026-04-13 16:59 26.95747 32.39305 36975 ft 522 kts 169°
2026-04-13 17:00 26.88799 32.41488 36974 ft 521 kts 169°
2026-04-13 17:00 26.81810 32.43680 36980 ft 521 kts 169°
2026-04-13 17:01 26.74829 32.45866 36971 ft 520 kts 169°
2026-04-13 17:01 26.67894 32.48036 36971 ft 520 kts 169°
2026-04-13 17:02 26.60935 32.50211 36968 ft 520 kts 169°
2026-04-13 17:02 26.53942 32.52393 36968 ft 520 kts 169°
2026-04-13 17:03 26.46966 32.54567 36955 ft 519 kts 169°
2026-04-13 17:03 26.40009 32.56735 36965 ft 519 kts 169°
2026-04-13 17:04 26.33095 32.58883 36966 ft 519 kts 169°
2026-04-13 17:04 26.26094 32.61057 36963 ft 519 kts 169°
2026-04-13 17:05 26.19183 32.63201 36960 ft 518 kts 169°
2026-04-13 17:05 26.12235 32.65352 36963 ft 518 kts 169°
2026-04-13 17:06 26.05282 32.67503 37182 ft 518 kts 169°
2026-04-13 17:06 26.01808 32.68576 37491 ft 518 kts 169°
2026-04-13 17:06 25.98338 32.69648 37864 ft 515 kts 169°
2026-04-13 17:06 25.94896 32.70714 38296 ft 512 kts 169°
2026-04-13 17:07 25.91472 32.71773 38618 ft 511 kts 170°
2026-04-13 17:07 25.88095 32.72814 38853 ft 510 kts 170°
2026-04-13 17:07 25.84671 32.73868 39092 ft 510 kts 170°
2026-04-13 17:07 25.81255 32.74919 39320 ft 509 kts 171°
2026-04-13 17:08 25.77837 32.76007 39513 ft 512 kts 168°
2026-04-13 17:08 25.74506 32.77501 39719 ft 519 kts 159°
2026-04-13 17:08 25.71347 32.79495 39902 ft 523 kts 153°
2026-04-13 17:08 25.68264 32.81658 40075 ft 525 kts 152°
2026-04-13 17:09 25.65213 32.83896 40264 ft 526 kts 151°
2026-04-13 17:09 25.62172 32.86167 40442 ft 527 kts 151°
2026-04-13 17:09 25.59138 32.88439 40621 ft 527 kts 152°
2026-04-13 17:09 25.56099 32.90707 40792 ft 527 kts 152°
2026-04-13 17:10 25.53088 32.92941 40941 ft 527 kts 152°
2026-04-13 17:10 25.46976 32.97442 40968 ft 527 kts 152°
2026-04-13 17:11 25.40863 33.01922 40980 ft 527 kts 152°
2026-04-13 17:11 25.34746 33.06400 40969 ft 527 kts 152°
2026-04-13 17:12 25.28605 33.10890 40980 ft 530 kts 152°
2026-04-13 17:12 25.22429 33.15401 40974 ft 533 kts 152°
2026-04-13 17:13 25.16239 33.19928 40972 ft 534 kts 152°
2026-04-13 17:13 25.10082 33.24416 40964 ft 533 kts 153°
2026-04-13 17:14 25.03879 33.28931 40969 ft 534 kts 153°
2026-04-13 17:14 24.97679 33.33440 40974 ft 533 kts 153°
2026-04-13 17:15 24.91474 33.37947 40968 ft 534 kts 153°
2026-04-13 17:15 24.85271 33.42447 40967 ft 534 kts 153°
2026-04-13 17:16 24.79108 33.46914 40966 ft 534 kts 153°
2026-04-13 17:16 24.72899 33.51408 40966 ft 534 kts 153°
2026-04-13 17:17 24.66689 33.55898 40965 ft 534 kts 153°
2026-04-13 17:17 24.60473 33.60386 40964 ft 534 kts 153°
2026-04-13 17:18 24.54259 33.64867 40976 ft 534 kts 153°
2026-04-13 17:18 24.48091 33.69310 40970 ft 534 kts 153°
2026-04-13 17:19 24.41878 33.73780 40966 ft 534 kts 153°
2026-04-13 17:19 24.35654 33.78253 40970 ft 534 kts 153°
2026-04-13 17:20 24.29436 33.82715 40964 ft 534 kts 153°
2026-04-13 17:20 24.23251 33.87149 40963 ft 534 kts 153°
2026-04-13 17:21 24.17029 33.91604 40963 ft 534 kts 153°
2026-04-13 17:21 24.10807 33.96054 40963 ft 534 kts 153°
2026-04-13 17:22 24.05627 33.99754 40962 ft 534 kts 153°
2026-04-13 17:22 23.99411 34.04191 40965 ft 534 kts 153°
2026-04-13 17:23 23.93179 34.08633 40960 ft 534 kts 153°
2026-04-13 17:23 23.86999 34.13033 40964 ft 534 kts 153°
2026-04-13 17:24 23.80774 34.17461 40933 ft 533 kts 153°
2026-04-13 17:24 23.74581 34.21884 40962 ft 531 kts 150°
2026-04-13 17:25 23.68412 34.26312 40965 ft 530 kts 151°
2026-04-13 17:25 23.62244 34.30730 40965 ft 529 kts 151°
2026-04-13 17:26 23.56112 34.35110 40965 ft 529 kts 151°
2026-04-13 17:26 23.49943 34.39511 40965 ft 529 kts 151°
2026-04-13 17:27 23.40739 34.46067 40962 ft 528 kts 151°
2026-04-13 17:27 23.34584 34.50445 40961 ft 528 kts 151°
2026-04-13 17:28 23.28419 34.54826 40967 ft 528 kts 151°
2026-04-13 17:28 23.22266 34.59193 40965 ft 527 kts 151°
2026-04-13 17:29 23.16121 34.63550 40971 ft 527 kts 151°
2026-04-13 17:29 23.10005 34.67881 40963 ft 527 kts 151°
2026-04-13 17:30 23.03840 34.72243 40979 ft 527 kts 151°
2026-04-13 17:30 22.97691 34.76588 40976 ft 527 kts 151°
2026-04-13 17:31 22.91538 34.80931 40978 ft 527 kts 151°
2026-04-13 17:31 22.85380 34.85273 40975 ft 527 kts 151°
2026-04-13 17:32 22.79274 34.89574 40976 ft 527 kts 151°
2026-04-13 17:32 22.73119 34.93904 40985 ft 527 kts 151°
2026-04-13 17:33 22.66973 34.98223 40983 ft 527 kts 151°
2026-04-13 17:33 22.60818 35.02544 40987 ft 527 kts 152°
2026-04-13 17:34 22.51597 35.09009 40992 ft 526 kts 152°
2026-04-13 17:35 22.45448 35.13314 40994 ft 526 kts 152°
2026-04-13 17:35 22.39340 35.17586 40997 ft 525 kts 152°
2026-04-13 17:36 22.33194 35.21880 41003 ft 525 kts 152°
2026-04-13 17:36 22.27050 35.26168 40993 ft 525 kts 152°
2026-04-13 17:37 22.20906 35.30452 41005 ft 525 kts 152°
2026-04-13 17:37 22.14798 35.34706 41006 ft 525 kts 152°
2026-04-13 17:38 22.08656 35.38979 41004 ft 525 kts 152°
2026-04-13 17:38 22.02521 35.43244 41003 ft 524 kts 152°
2026-04-13 17:39 21.96392 35.47512 41000 ft 524 kts 152°
2026-04-13 17:39 21.90279 35.51816 40999 ft 524 kts 152°
2026-04-13 17:40 21.84176 35.56117 40992 ft 524 kts 152°
2026-04-13 17:40 21.78101 35.60386 40986 ft 524 kts 152°
2026-04-13 17:41 21.71974 35.64683 40984 ft 524 kts 152°
2026-04-13 17:41 21.65867 35.68960 40978 ft 524 kts 152°
2026-04-13 17:42 21.59739 35.73247 40976 ft 525 kts 152°
2026-04-13 17:42 21.53658 35.77499 40973 ft 525 kts 152°
2026-04-13 17:43 21.47530 35.81779 40978 ft 525 kts 152°
2026-04-13 17:43 21.41407 35.86052 40960 ft 525 kts 152°
2026-04-13 17:44 21.35270 35.90329 40970 ft 525 kts 152°
2026-04-13 17:44 21.29171 35.94576 40973 ft 525 kts 152°
2026-04-13 17:45 21.23037 35.98842 40970 ft 525 kts 152°
2026-04-13 17:45 21.16901 36.03106 40967 ft 525 kts 152°
2026-04-13 17:46 21.10766 36.07365 40963 ft 526 kts 152°
2026-04-13 17:46 21.04619 36.11628 40963 ft 525 kts 152°
2026-04-13 17:47 20.98511 36.15861 40971 ft 526 kts 153°
2026-04-13 17:47 20.92364 36.20115 40974 ft 526 kts 153°
2026-04-13 17:48 20.86245 36.24345 40971 ft 526 kts 153°
2026-04-13 17:48 20.80095 36.28592 40977 ft 526 kts 153°
2026-04-13 17:49 20.73624 36.32000 40975 ft 510 kts 169°
2026-04-13 17:49 20.66759 36.33113 40976 ft 493 kts 185°
2026-04-13 17:50 20.59938 36.33195 40977 ft 492 kts 187°
2026-04-13 17:50 20.53084 36.33132 40973 ft 492 kts 187°
2026-04-13 17:51 20.46227 36.33095 40969 ft 492 kts 187°
2026-04-13 17:51 20.39373 36.33093 40971 ft 492 kts 187°
2026-04-13 17:52 20.32511 36.33103 40972 ft 493 kts 187°
2026-04-13 17:52 20.25697 36.33115 40974 ft 493 kts 187°
2026-04-13 17:53 20.19991 36.33123 40978 ft 493 kts 187°
2026-04-13 17:53 20.11972 36.33134 40972 ft 493 kts 187°
2026-04-13 17:54 20.05111 36.33143 40973 ft 493 kts 187°
2026-04-13 17:54 19.98287 36.33151 40973 ft 492 kts 187°
2026-04-13 17:55 19.91422 36.33160 40978 ft 493 kts 187°
2026-04-13 17:55 19.84558 36.33169 40978 ft 492 kts 187°
2026-04-13 17:56 19.77705 36.33179 40979 ft 492 kts 187°
2026-04-13 17:56 19.70846 36.33187 40983 ft 492 kts 187°
2026-04-13 17:57 19.64030 36.33196 40979 ft 492 kts 187°
2026-04-13 17:57 19.57171 36.33204 40982 ft 492 kts 187°
2026-04-13 17:58 19.50320 36.33213 40989 ft 492 kts 187°
2026-04-13 17:58 19.43467 36.33222 40981 ft 492 kts 187°
2026-04-13 17:59 19.36608 36.33231 40977 ft 492 kts 187°
2026-04-13 17:59 19.29790 36.33239 40982 ft 492 kts 187°
2026-04-13 18:00 19.22930 36.33248 40982 ft 492 kts 188°
2026-04-13 18:00 19.16072 36.33257 40984 ft 493 kts 188°
2026-04-13 18:01 19.09214 36.33265 40982 ft 492 kts 188°
2026-04-13 18:01 19.02353 36.33274 40972 ft 492 kts 187°
2026-04-13 18:02 18.95531 36.33281 40977 ft 494 kts 188°
2026-04-13 18:02 18.88661 36.33290 40973 ft 493 kts 188°
2026-04-13 18:03 18.81788 36.33300 40966 ft 493 kts 188°
2026-04-13 18:03 18.74930 36.33308 40963 ft 493 kts 188°
2026-04-13 18:04 18.68070 36.33315 40970 ft 493 kts 188°
2026-04-13 18:04 18.61268 36.33192 40958 ft 491 kts 189°
2026-04-13 18:05 18.54435 36.33005 40950 ft 491 kts 189°
2026-04-13 18:05 18.47589 36.32836 40942 ft 491 kts 189°
2026-04-13 18:06 18.40739 36.32685 40949 ft 491 kts 189°
2026-04-13 18:06 18.33942 36.32543 40939 ft 491 kts 189°
2026-04-13 18:07 18.27098 36.32399 40929 ft 491 kts 189°
2026-04-13 18:07 18.20248 36.32255 40919 ft 491 kts 189°
2026-04-13 18:08 18.13416 36.32111 40928 ft 491 kts 189°
2026-04-13 18:08 18.06614 36.31967 40919 ft 491 kts 189°
2026-04-13 18:09 17.99770 36.31823 40917 ft 490 kts 189°
2026-04-13 18:09 17.94098 36.31704 40913 ft 490 kts 189°
2026-04-13 18:10 17.86165 36.31537 40909 ft 490 kts 189°
2026-04-13 18:10 17.80456 36.31417 40907 ft 489 kts 189°
2026-04-13 18:11 17.73686 36.31274 40906 ft 489 kts 189°
2026-04-13 18:11 17.66894 36.31132 40906 ft 488 kts 189°
2026-04-13 18:12 17.60093 36.30990 40898 ft 488 kts 189°
2026-04-13 18:12 17.53306 36.30847 40898 ft 487 kts 189°
2026-04-13 18:13 17.46522 36.30704 40899 ft 487 kts 188°
2026-04-13 18:13 17.39783 36.30562 40893 ft 487 kts 188°
2026-04-13 18:14 17.33001 36.30419 40891 ft 487 kts 188°
2026-04-13 18:14 17.26214 36.30277 40893 ft 487 kts 188°
2026-04-13 18:15 17.19441 36.30136 40893 ft 487 kts 188°
2026-04-13 18:15 17.12650 36.29995 40890 ft 487 kts 188°
2026-04-13 18:16 17.05911 36.29854 40889 ft 487 kts 188°
2026-04-13 18:16 16.99126 36.29712 40885 ft 487 kts 188°
2026-04-13 18:17 16.92335 36.29571 40884 ft 487 kts 188°
2026-04-13 18:17 16.85547 36.29430 40885 ft 487 kts 188°
2026-04-13 18:18 16.78802 36.29290 40884 ft 487 kts 188°
2026-04-13 18:18 16.72013 36.29149 40880 ft 487 kts 188°
2026-04-13 18:19 16.65223 36.29007 40872 ft 487 kts 188°
2026-04-13 18:19 16.58435 36.28866 40865 ft 487 kts 188°
2026-04-13 18:20 16.51692 36.28726 40869 ft 488 kts 188°
2026-04-13 18:20 16.44891 36.28585 40857 ft 488 kts 188°
2026-04-13 18:21 16.38135 36.28445 40857 ft 488 kts 188°
2026-04-13 18:21 16.31351 36.28305 40854 ft 488 kts 188°
2026-04-13 18:22 16.24550 36.28164 40853 ft 488 kts 188°
2026-04-13 18:22 16.17748 36.28024 40847 ft 488 kts 188°
2026-04-13 18:23 16.10956 36.27883 40848 ft 488 kts 188°
2026-04-13 18:23 16.04151 36.27743 40852 ft 489 kts 188°
2026-04-13 18:24 15.97392 36.27604 40848 ft 489 kts 188°
2026-04-13 18:24 15.90583 36.27463 40843 ft 489 kts 188°
2026-04-13 18:25 15.83829 36.27324 40839 ft 489 kts 188°
2026-04-13 18:25 15.77009 36.27184 40834 ft 489 kts 187°
2026-04-13 18:26 15.70238 36.27044 40840 ft 489 kts 187°
2026-04-13 18:26 15.63432 36.26905 40837 ft 489 kts 187°
2026-04-13 18:27 15.56613 36.26764 40840 ft 489 kts 187°
2026-04-13 18:27 15.49842 36.26626 40832 ft 489 kts 187°
2026-04-13 18:28 15.43014 36.26486 40835 ft 489 kts 187°
2026-04-13 18:28 15.36194 36.26346 40832 ft 489 kts 187°
2026-04-13 18:29 15.29383 36.26206 40831 ft 489 kts 187°
2026-04-13 18:29 15.22610 36.26067 40834 ft 489 kts 187°
2026-04-13 18:30 15.15789 36.25928 40833 ft 489 kts 187°
2026-04-13 18:30 15.08973 36.25789 40830 ft 489 kts 187°
2026-04-13 18:31 15.02154 36.25650 40829 ft 490 kts 187°
2026-04-13 18:31 14.95369 36.25511 40831 ft 489 kts 187°
2026-04-13 18:32 14.88557 36.25372 40828 ft 489 kts 187°
2026-04-13 18:32 14.81744 36.25233 40830 ft 489 kts 187°
2026-04-13 18:33 14.74939 36.25094 40830 ft 489 kts 187°
2026-04-13 18:33 14.68127 36.24955 40826 ft 489 kts 187°
2026-04-13 18:34 14.57943 36.24747 40827 ft 489 kts 187°
2026-04-13 18:34 14.51110 36.24609 40826 ft 489 kts 187°
2026-04-13 18:35 14.44298 36.24470 40825 ft 489 kts 187°
2026-04-13 18:35 14.37487 36.24332 40827 ft 489 kts 187°
2026-04-13 18:36 14.30713 36.24194 40822 ft 489 kts 187°
2026-04-13 18:36 14.23890 36.24056 40829 ft 489 kts 187°
2026-04-13 18:37 14.17073 36.23918 40819 ft 489 kts 187°
2026-04-13 18:37 14.10294 36.23780 40828 ft 490 kts 187°
2026-04-13 18:38 14.03483 36.23642 40833 ft 490 kts 187°
2026-04-13 18:38 13.96664 36.23504 40829 ft 490 kts 187°
2026-04-13 18:39 13.89846 36.23366 40832 ft 490 kts 187°
2026-04-13 18:39 13.83028 36.23228 40831 ft 490 kts 187°
2026-04-13 18:40 13.76201 36.23090 40832 ft 490 kts 187°
2026-04-13 18:40 13.69395 36.23118 40832 ft 495 kts 180°
2026-04-13 18:41 13.62624 36.24807 40832 ft 508 kts 163°
2026-04-13 18:41 13.56174 36.27892 40831 ft 514 kts 157°
2026-04-13 18:42 13.49881 36.31424 40836 ft 515 kts 155°
2026-04-13 18:42 13.43671 36.35028 40834 ft 515 kts 155°
2026-04-13 18:43 13.37410 36.38632 40839 ft 515 kts 155°
2026-04-13 18:43 13.31130 36.42211 40843 ft 515 kts 156°
2026-04-13 18:44 13.24897 36.45751 40844 ft 515 kts 156°
2026-04-13 18:44 13.18604 36.49321 40848 ft 515 kts 156°
2026-04-13 18:45 13.12324 36.52884 40850 ft 515 kts 156°
2026-04-13 18:45 13.06087 36.56422 40857 ft 515 kts 156°
2026-04-13 18:46 12.99805 36.59982 40858 ft 515 kts 156°
2026-04-13 18:46 12.93531 36.63537 40862 ft 515 kts 156°
2026-04-13 18:47 12.87261 36.67087 40868 ft 515 kts 156°
2026-04-13 18:47 12.81028 36.70614 40866 ft 514 kts 156°
2026-04-13 18:48 12.74748 36.74165 40880 ft 514 kts 156°
2026-04-13 18:48 12.68482 36.77706 40876 ft 514 kts 156°
2026-04-13 18:49 12.62226 36.81241 40891 ft 514 kts 156°
2026-04-13 18:49 12.55993 36.84760 40901 ft 514 kts 156°
2026-04-13 18:50 12.49732 36.88293 40908 ft 513 kts 156°
2026-04-13 18:50 12.43466 36.91826 40919 ft 513 kts 156°
2026-04-13 18:51 12.37208 36.95352 40930 ft 513 kts 156°
2026-04-13 18:51 12.30978 36.98861 40936 ft 514 kts 156°
2026-04-13 18:52 12.24702 37.02395 40945 ft 514 kts 156°
2026-04-13 18:52 12.18442 37.05918 40949 ft 513 kts 156°
2026-04-13 18:53 12.12182 37.09439 40952 ft 513 kts 156°
2026-04-13 18:53 12.05955 37.12939 40952 ft 513 kts 155°
2026-04-13 18:54 11.99705 37.16450 40957 ft 512 kts 155°
2026-04-13 18:54 11.93450 37.19962 40957 ft 512 kts 155°
2026-04-13 18:55 11.87238 37.23448 40955 ft 511 kts 155°
2026-04-13 18:55 11.80992 37.26951 40958 ft 511 kts 155°
2026-04-13 18:56 11.74751 37.30450 40963 ft 511 kts 155°
2026-04-13 18:56 11.68528 37.33937 40967 ft 510 kts 155°
2026-04-13 18:57 11.63349 37.36837 40975 ft 510 kts 155°
2026-04-13 18:57 11.56108 37.40890 40985 ft 510 kts 155°
2026-04-13 18:58 11.50897 37.43806 40991 ft 509 kts 155°
2026-04-13 18:58 11.44718 37.47261 41005 ft 509 kts 155°
2026-04-13 18:59 11.38511 37.50731 41017 ft 509 kts 155°
2026-04-13 18:59 11.32288 37.54207 41025 ft 509 kts 155°
2026-04-13 19:00 11.26070 37.57678 41034 ft 509 kts 155°
2026-04-13 19:00 11.19862 37.61142 41048 ft 509 kts 155°
2026-04-13 19:01 11.13687 37.64588 41049 ft 508 kts 155°
2026-04-13 19:01 11.07484 37.68046 41064 ft 508 kts 155°
2026-04-13 19:02 11.01269 37.71511 41073 ft 508 kts 155°
2026-04-13 19:02 10.95052 37.74973 41086 ft 509 kts 155°
2026-04-13 19:03 10.88873 37.78412 41091 ft 509 kts 155°
2026-04-13 19:03 10.82651 37.81874 41100 ft 509 kts 155°
2026-04-13 19:04 10.76461 37.85317 41106 ft 509 kts 155°
2026-04-13 19:04 10.70240 37.88775 41107 ft 509 kts 155°
2026-04-13 19:05 10.64023 37.92231 41111 ft 509 kts 155°
2026-04-13 19:05 10.57809 37.95681 41104 ft 509 kts 155°
2026-04-13 19:06 10.51595 37.99131 41096 ft 508 kts 155°
2026-04-13 19:06 10.45422 38.02557 41078 ft 508 kts 155°
2026-04-13 19:07 10.39209 38.06003 41065 ft 508 kts 155°
2026-04-13 19:07 10.33002 38.09444 41048 ft 507 kts 155°
2026-04-13 19:08 10.26798 38.12882 41033 ft 507 kts 155°
2026-04-13 19:08 10.20629 38.16299 41013 ft 507 kts 155°
2026-04-13 19:09 10.14425 38.19733 41016 ft 508 kts 154°
2026-04-13 19:09 10.08227 38.23164 41008 ft 507 kts 154°
2026-04-13 19:10 10.02029 38.26593 41012 ft 507 kts 154°
2026-04-13 19:10 9.95840 38.30014 41015 ft 507 kts 154°
2026-04-13 19:11 9.89667 38.33425 41022 ft 507 kts 154°
2026-04-13 19:11 9.83530 38.36816 41031 ft 506 kts 154°
2026-04-13 19:12 9.77311 38.40250 41045 ft 506 kts 154°
2026-04-13 19:12 9.71126 38.43663 41064 ft 506 kts 154°
2026-04-13 19:13 9.64933 38.47079 41087 ft 506 kts 154°
2026-04-13 19:13 9.58747 38.50492 41101 ft 506 kts 154°
2026-04-13 19:14 9.52556 38.53905 41114 ft 505 kts 154°
2026-04-13 19:14 9.46374 38.57311 41124 ft 505 kts 154°
2026-04-13 19:15 9.40193 38.60716 41137 ft 506 kts 154°
2026-04-13 19:15 9.34042 38.64102 41146 ft 506 kts 154°
2026-04-13 19:16 9.27853 38.67509 41184 ft 506 kts 154°
2026-04-13 19:16 9.21670 38.70911 41242 ft 505 kts 154°
2026-04-13 19:17 9.15406 38.74120 41302 ft 503 kts 162°
2026-04-13 19:17 9.08701 38.75618 41350 ft 493 kts 181°
2026-04-13 19:18 9.01931 38.75007 41376 ft 487 kts 194°
2026-04-13 19:18 8.95357 38.73385 41373 ft 485 kts 198°
2026-04-13 19:19 8.88828 38.71601 41350 ft 486 kts 198°
2026-04-13 19:19 8.82306 38.69895 41300 ft 486 kts 197°
2026-04-13 19:20 8.75736 38.68237 41246 ft 486 kts 197°
2026-04-13 19:20 8.69162 38.66597 41190 ft 487 kts 197°
2026-04-13 19:21 8.62585 38.64955 41153 ft 487 kts 197°
2026-04-13 19:21 8.56008 38.63310 41150 ft 487 kts 197°
2026-04-13 19:22 8.49422 38.61662 41154 ft 487 kts 197°
2026-04-13 19:22 8.42842 38.60016 41151 ft 487 kts 197°
2026-04-13 19:23 8.36251 38.58368 41155 ft 487 kts 197°
2026-04-13 19:23 8.29710 38.56734 41174 ft 487 kts 197°
2026-04-13 19:24 8.23013 38.55500 41145 ft 492 kts 186°
2026-04-13 19:24 8.16187 38.56214 41145 ft 499 kts 166°
2026-04-13 19:25 8.09906 38.59176 41125 ft 505 kts 150°
2026-04-13 19:25 8.04015 38.63113 41112 ft 507 kts 148°
2026-04-13 19:26 7.98193 38.67147 41107 ft 507 kts 148°
2026-04-13 19:26 7.92347 38.71154 41099 ft 507 kts 148°
2026-04-13 19:27 7.86526 38.75099 41091 ft 507 kts 148°
2026-04-13 19:27 7.80665 38.79057 41099 ft 507 kts 148°
2026-04-13 19:28 7.75048 38.83390 41106 ft 510 kts 136°
2026-04-13 19:28 7.70164 38.88600 41117 ft 511 kts 133°
2026-04-13 19:29 7.65497 38.93975 41138 ft 512 kts 132°
2026-04-13 19:29 7.60825 38.99391 41160 ft 511 kts 133°
2026-04-13 19:30 7.56128 39.04787 41165 ft 511 kts 133°
2026-04-13 19:30 7.51423 39.10162 41177 ft 511 kts 133°
2026-04-13 19:31 7.46712 39.15537 41198 ft 511 kts 133°
2026-04-13 19:31 7.30490 39.34040 41196 ft 510 kts 133°
2026-04-13 19:32 7.11676 39.55476 41212 ft 510 kts 133°
2026-04-13 19:32 6.92879 39.76862 41200 ft 509 kts 133°
2026-04-13 19:33 6.74057 39.98248 41154 ft 509 kts 133°
2026-04-13 19:34 6.46041 40.30033 41045 ft 507 kts 133°
2026-04-13 19:34 6.27283 40.51282 41021 ft 507 kts 133°
2026-04-13 19:35 6.08540 40.72489 41010 ft 507 kts 133°
2026-04-13 19:35 5.89899 40.93556 40979 ft 506 kts 132°
2026-04-13 19:36 5.71201 41.14665 40967 ft 505 kts 132°
2026-04-13 19:36 5.52561 41.35686 40949 ft 503 kts 132°
2026-04-13 19:37 5.33913 41.56695 40925 ft 502 kts 132°
2026-04-13 19:37 5.15448 41.77477 40909 ft 502 kts 133°
2026-04-13 19:38 4.96850 41.98388 40898 ft 502 kts 133°
2026-04-13 19:38 4.78211 42.19326 40897 ft 501 kts 133°
2026-04-13 19:39 4.59592 42.40223 40899 ft 502 kts 133°
2026-04-13 19:39 4.41121 42.60938 40904 ft 502 kts 133°
2026-04-13 19:40 4.22482 42.81823 40907 ft 502 kts 133°
2026-04-13 19:40 4.03899 43.02629 40922 ft 501 kts 133°
2026-04-13 19:41 3.85297 43.23442 40924 ft 501 kts 133°
2026-04-13 19:41 3.66660 43.44277 40957 ft 503 kts 133°
2026-04-13 19:42 3.38707 43.75503 40967 ft 504 kts 132°
2026-04-13 19:42 3.19994 43.96389 40970 ft 503 kts 132°
2026-04-13 19:43 3.01293 44.17252 40963 ft 502 kts 132°
2026-04-13 19:43 2.82732 44.37946 40954 ft 502 kts 132°
2026-04-13 19:44 2.64079 44.58732 40948 ft 501 kts 132°
2026-04-13 19:44 2.45435 44.79498 40941 ft 501 kts 132°
2026-04-13 19:45 2.26800 45.00244 40938 ft 501 kts 132°
2026-04-13 19:45 2.08227 45.20913 40940 ft 502 kts 132°
2026-04-13 19:46 1.92108 45.43637 40926 ft 503 kts 120°
2026-04-13 19:46 1.80203 45.63692 40931 ft 503 kts 120°
2026-04-13 19:47 1.65864 45.87759 40937 ft 503 kts 120°
2026-04-13 19:47 1.51552 46.11775 40938 ft 502 kts 120°
2026-04-13 19:48 1.37246 46.35773 40942 ft 502 kts 120°
2026-04-13 19:48 1.23025 46.59623 40942 ft 503 kts 120°
2026-04-13 19:49 1.08692 46.83654 40939 ft 503 kts 120°
2026-04-13 19:49 0.94371 47.07659 40942 ft 503 kts 120°
2026-04-13 19:50 0.80002 47.31740 40943 ft 504 kts 120°
2026-04-13 19:50 0.65487 47.55718 40947 ft 504 kts 121°
2026-04-13 19:51 0.50855 47.79659 40942 ft 503 kts 121°
2026-04-13 19:51 0.36357 48.03394 40944 ft 503 kts 121°
2026-04-13 19:52 0.21774 48.27264 40945 ft 502 kts 121°
2026-04-13 19:52 0.07207 48.51110 40947 ft 502 kts 121°
2026-04-13 19:53 -0.07337 48.74917 40945 ft 502 kts 121°
2026-04-13 19:53 -0.21906 48.98765 40944 ft 501 kts 121°
2026-04-13 19:54 -0.36366 49.22437 40944 ft 502 kts 121°
2026-04-13 19:54 -0.50914 49.46254 40944 ft 502 kts 121°
2026-04-13 19:55 -0.65504 49.70142 40942 ft 503 kts 121°
2026-04-13 19:55 -0.80078 49.94008 40948 ft 504 kts 121°
2026-04-13 19:56 -0.94726 50.17999 40944 ft 505 kts 121°
2026-04-13 19:56 -1.09317 50.41901 41139 ft 508 kts 122°
2026-04-13 19:57 -1.16669 50.53947 42049 ft 505 kts 122°
2026-04-13 19:57 -1.23984 50.65934 42809 ft 504 kts 122°
2026-04-13 19:57 -1.31263 50.77862 42940 ft 504 kts 122°
2026-04-13 19:57 -1.38595 50.89878 42938 ft 505 kts 122°
2026-04-13 19:58 -1.53234 51.13877 42937 ft 506 kts 122°
2026-04-13 19:58 -1.67807 51.37774 42937 ft 507 kts 122°
2026-04-13 19:59 -1.82490 51.61860 42937 ft 507 kts 123°
2026-04-13 19:59 -1.97201 51.86002 42938 ft 507 kts 123°
2026-04-13 20:00 -2.11898 52.10130 42938 ft 507 kts 123°
2026-04-13 20:00 -2.26558 52.34208 42937 ft 507 kts 123°
2026-04-13 20:01 -2.41149 52.58184 42938 ft 507 kts 123°
2026-04-13 20:01 -2.55812 52.82291 42938 ft 507 kts 123°
2026-04-13 20:02 -2.73054 53.04446 42933 ft 504 kts 131°
2026-04-13 20:02 -2.90621 53.26278 42935 ft 503 kts 131°
2026-04-13 20:03 -3.08137 53.48065 42938 ft 502 kts 131°
2026-04-13 20:03 -3.25669 53.69882 42933 ft 502 kts 131°
2026-04-13 20:04 -3.43085 53.91570 42930 ft 502 kts 131°
2026-04-13 20:04 -3.48514 53.98333 42933 ft 501 kts 131°
2026-04-13 20:05 -3.52883 54.03777 42626 ft 498 kts 131°
2026-04-13 20:05 -3.55049 54.06478 42356 ft 497 kts 131°
2026-04-13 20:05 -3.57207 54.09168 41856 ft 495 kts 131°
2026-04-13 20:06 -3.59368 54.11861 41241 ft 496 kts 131°
2026-04-13 20:06 -3.61534 54.14559 40679 ft 498 kts 131°
2026-04-13 20:06 -3.63711 54.17272 40106 ft 500 kts 131°
2026-04-13 20:06 -3.65896 54.19994 39562 ft 502 kts 131°
2026-04-13 20:07 -3.68087 54.22725 39030 ft 504 kts 131°
2026-04-13 20:07 -3.70295 54.25478 38473 ft 506 kts 131°
2026-04-13 20:07 -3.72501 54.28228 37883 ft 507 kts 131°
2026-04-13 20:07 -3.74713 54.30987 37282 ft 508 kts 131°
2026-04-13 20:08 -3.76899 54.33713 36719 ft 509 kts 131°
2026-04-13 20:08 -3.79121 54.36485 36153 ft 509 kts 131°
2026-04-13 20:08 -3.81342 54.39256 35607 ft 509 kts 131°
2026-04-13 20:08 -3.83560 54.42023 35068 ft 510 kts 131°
2026-04-13 20:09 -3.85781 54.44793 34540 ft 510 kts 131°
2026-04-13 20:09 -3.88004 54.47567 34016 ft 511 kts 130°
2026-04-13 20:09 -3.90230 54.50344 33449 ft 511 kts 130°
2026-04-13 20:09 -3.92463 54.53129 32821 ft 512 kts 130°
2026-04-13 20:10 -3.94691 54.55910 32212 ft 513 kts 130°
2026-04-13 20:10 -3.96900 54.58666 31620 ft 514 kts 130°
2026-04-13 20:10 -3.99138 54.61459 31032 ft 514 kts 129°
2026-04-13 20:10 -4.01381 54.64259 30460 ft 515 kts 129°
2026-04-13 20:11 -4.03626 54.67061 29882 ft 516 kts 129°
2026-04-13 20:11 -4.05871 54.69865 29218 ft 515 kts 129°
2026-04-13 20:11 -4.08114 54.72670 28573 ft 512 kts 129°
2026-04-13 20:11 -4.10332 54.75441 27943 ft 507 kts 129°
2026-04-13 20:12 -4.12522 54.78178 27294 ft 499 kts 129°
2026-04-13 20:12 -4.14675 54.80870 26642 ft 492 kts 129°
2026-04-13 20:12 -4.16805 54.83531 26003 ft 486 kts 129°
2026-04-13 20:12 -4.18741 54.85950 25423 ft 480 kts 129°
2026-04-13 20:13 -4.20816 54.88543 24826 ft 473 kts 128°
2026-04-13 20:13 -4.22862 54.91100 24229 ft 467 kts 128°
2026-04-13 20:13 -4.24886 54.93629 23641 ft 461 kts 128°
2026-04-13 20:13 -4.26853 54.96087 22990 ft 456 kts 128°
2026-04-13 20:14 -4.28824 54.98551 22304 ft 450 kts 128°
2026-04-13 20:14 -4.30774 55.00989 21636 ft 444 kts 128°
2026-04-13 20:14 -4.32700 55.03396 20981 ft 439 kts 128°
2026-04-13 20:14 -4.34600 55.05772 20343 ft 434 kts 128°
2026-04-13 20:15 -4.36476 55.08119 19723 ft 428 kts 128°
2026-04-13 20:15 -4.38213 55.10481 19114 ft 423 kts 120°
2026-04-13 20:15 -4.39571 55.13072 18525 ft 417 kts 115°
2026-04-13 20:15 -4.40751 55.15708 17877 ft 412 kts 112°
2026-04-13 20:16 -4.41829 55.18359 17184 ft 404 kts 111°
2026-04-13 20:16 -4.42823 55.20922 16509 ft 388 kts 110°
2026-04-13 20:16 -4.43760 55.23374 15854 ft 365 kts 110°
2026-04-13 20:16 -4.44642 55.25677 15213 ft 345 kts 110°
2026-04-13 20:17 -4.45488 55.27866 14553 ft 329 kts 111°
2026-04-13 20:17 -4.46305 55.29958 13924 ft 318 kts 111°
2026-04-13 20:17 -4.47111 55.32011 13258 ft 323 kts 111°
2026-04-13 20:17 -4.47945 55.34120 12565 ft 328 kts 111°
2026-04-13 20:18 -4.48790 55.36254 11884 ft 331 kts 111°
2026-04-13 20:18 -4.49643 55.38404 11216 ft 334 kts 111°
2026-04-13 20:18 -4.50502 55.40569 10567 ft 336 kts 111°
2026-04-13 20:18 -4.51363 55.42743 10139 ft 330 kts 111°
2026-04-13 20:19 -4.52168 55.44775 9935 ft 298 kts 111°
2026-04-13 20:19 -4.52964 55.46645 9537 ft 290 kts 118°
2026-04-13 20:19 -4.53936 55.48406 9100 ft 288 kts 120°
2026-04-13 20:19 -4.54971 55.50126 8656 ft 287 kts 122°
2026-04-13 20:20 -4.56039 55.51818 8218 ft 286 kts 122°
2026-04-13 20:20 -4.57106 55.53473 8023 ft 277 kts 123°
2026-04-13 20:20 -4.58150 55.55084 7990 ft 275 kts 123°
2026-04-13 20:20 -4.59192 55.56695 7800 ft 276 kts 123°
2026-04-13 20:21 -4.60231 55.58311 7390 ft 276 kts 122°
2026-04-13 20:21 -4.61266 55.59928 6973 ft 276 kts 122°
2026-04-13 20:21 -4.62301 55.61551 6553 ft 276 kts 122°
2026-04-13 20:21 -4.63321 55.63153 6132 ft 276 kts 122°
2026-04-13 20:22 -4.64355 55.64778 5703 ft 276 kts 122°
2026-04-13 20:22 -4.65387 55.66399 5239 ft 276 kts 122°
2026-04-13 20:22 -4.66418 55.68019 4827 ft 275 kts 122°
2026-04-13 20:22 -4.67509 55.69586 4383 ft 274 kts 131°
2026-04-13 20:23 -4.68998 55.70756 3948 ft 273 kts 154°
2026-04-13 20:23 -4.70828 55.71156 3509 ft 272 kts 182°
2026-04-13 20:23 -4.72611 55.70604 3146 ft 268 kts 210°
2026-04-13 20:23 -4.74142 55.69580 2882 ft 261 kts 215°
2026-04-13 20:24 -4.75484 55.68397 2638 ft 254 kts 230°
2026-04-13 20:24 -4.76193 55.66822 2379 ft 248 kts 263°
2026-04-13 20:24 -4.76022 55.65132 2141 ft 242 kts 285°
2026-04-13 20:24 -4.75415 55.63586 2006 ft 239 kts 303°
2026-04-13 20:25 -4.74393 55.62275 1991 ft 237 kts 310°
2026-04-13 20:25 -4.73423 55.61010 1843 ft 221 kts 305°
2026-04-13 20:25 -4.72609 55.59760 1593 ft 206 kts 302°
2026-04-13 20:25 -4.71858 55.58617 1337 ft 190 kts 304°
2026-04-13 20:26 -4.71120 55.57555 1076 ft 181 kts 305°
2026-04-13 20:26 -4.70431 55.56544 858 ft 169 kts 305°
2026-04-13 20:26 -4.69787 55.55607 644 ft 157 kts 306°
2026-04-13 20:26 -4.69194 55.54724 423 ft 147 kts 303°
2026-04-13 20:27 -4.68618 55.53905 253 ft 141 kts 303°
2026-04-13 20:27 -4.68077 55.53103 66 ft 140 kts 306°
2026-04-13 20:27 -4.67569 55.52357 39 ft 126 kts 310°
2026-04-13 20:27 -4.67142 55.51749 28 ft 80 kts 304°
2026-04-13 20:28 -4.66941 55.51454 28 ft 30 kts 304°
2026-04-13 20:28 -4.66921 55.51355 26 ft 10 kts 230°
2026-04-13 20:28 -4.66973 55.51314 27 ft 0 kts 216°
2026-04-13 20:28 -4.66986 55.51304 27 ft 10 kts 215°
2026-04-13 20:29 -4.67008 55.51243 27 ft 9 kts 287°
2026-04-13 20:29 -4.66995 55.51202 27 ft 5 kts 261°
2026-04-13 20:29 -4.67012 55.51183 27 ft 3 kts 213°
2026-04-13 20:29 -4.67029 55.51172 27 ft 0 kts 214°
2026-04-13 20:30 -4.67038 55.51166 27 ft 0 kts 214°